createdAt,value
2017-08-24T00:00:17.493Z,20.40
2017-08-24T00:02:43.829Z,20.40
2017-08-24T00:05:10.223Z,20.40
2017-08-24T00:07:36.599Z,20.40
2017-08-24T00:10:03.001Z,20.40
2017-08-24T00:12:36.237Z,20.30
2017-08-24T00:15:02.569Z,20.30
2017-08-24T00:17:28.884Z,20.30
2017-08-24T00:19:55.249Z,20.30
2017-08-24T00:22:21.572Z,20.30
2017-08-24T00:24:47.898Z,20.30
2017-08-24T00:27:14.260Z,20.30
2017-08-24T00:29:40.629Z,20.20
2017-08-24T00:32:06.992Z,20.20
2017-08-24T00:34:33.346Z,20.20
2017-08-24T00:36:59.768Z,20.20
2017-08-24T00:39:26.122Z,20.20
2017-08-24T00:41:52.530Z,20.10
2017-08-24T00:44:18.932Z,20.20
2017-08-24T00:46:45.270Z,20.10
2017-08-24T00:49:11.647Z,20.10
2017-08-24T00:51:38.072Z,20.10
2017-08-24T00:54:04.747Z,20.20
2017-08-24T00:56:31.140Z,20.10
2017-08-24T00:58:57.483Z,20.10
2017-08-24T01:01:23.828Z,20.10
2017-08-24T01:03:50.207Z,20.10
2017-08-24T01:06:16.559Z,20.10
2017-08-24T01:08:42.922Z,20.10
2017-08-24T01:11:09.289Z,20.10
2017-08-24T01:13:35.628Z,20.10
2017-08-24T01:16:02.064Z,20.00
2017-08-24T01:18:28.663Z,20.00
2017-08-24T01:20:55.300Z,20.00
2017-08-24T01:23:21.721Z,20.10
2017-08-24T01:25:48.157Z,20.00
2017-08-24T01:28:14.589Z,20.00
2017-08-24T01:30:40.911Z,20.00
2017-08-24T01:33:07.220Z,20.00
2017-08-24T01:35:34.435Z,20.00
2017-08-24T01:38:00.755Z,20.00
2017-08-24T01:40:27.168Z,19.90
2017-08-24T01:42:53.495Z,19.90
2017-08-24T01:45:19.822Z,20.00
2017-08-24T01:47:46.180Z,19.90
2017-08-24T01:50:12.545Z,19.90
2017-08-24T01:52:38.888Z,19.90
2017-08-24T01:55:05.265Z,19.90
2017-08-24T01:57:31.604Z,19.90
2017-08-24T01:59:58.180Z,19.90
2017-08-24T02:02:24.820Z,19.90
2017-08-24T02:04:51.172Z,19.90
2017-08-24T02:07:17.545Z,19.90
2017-08-24T02:09:44.677Z,19.90
2017-08-24T02:12:10.996Z,19.90
2017-08-24T02:14:37.317Z,19.90
2017-08-24T02:17:03.675Z,19.90
2017-08-24T02:19:30.059Z,19.90
2017-08-24T02:21:56.471Z,19.90
2017-08-24T02:24:22.814Z,19.90
2017-08-24T02:26:49.204Z,19.90
2017-08-24T02:29:15.595Z,19.80
2017-08-24T02:31:41.914Z,19.80
2017-08-24T02:34:08.281Z,19.80
2017-08-24T02:36:34.592Z,19.80
2017-08-24T02:39:00.948Z,19.80
2017-08-24T02:41:27.319Z,19.80
2017-08-24T02:43:53.639Z,19.70
2017-08-24T02:46:19.956Z,19.70
2017-08-24T02:48:46.317Z,19.70
2017-08-24T02:51:12.640Z,19.70
2017-08-24T02:53:39.023Z,19.70
2017-08-24T02:56:05.372Z,19.70
2017-08-24T02:58:31.678Z,19.70
2017-08-24T03:00:58.047Z,19.70
2017-08-24T03:03:24.376Z,19.70
2017-08-24T03:05:50.729Z,19.70
2017-08-24T03:08:17.092Z,19.70
2017-08-24T03:10:43.403Z,19.70
2017-08-24T03:13:09.814Z,19.70
2017-08-24T03:15:36.719Z,19.70
2017-08-24T03:18:04.572Z,19.70
2017-08-24T03:20:30.958Z,19.70
2017-08-24T03:22:57.329Z,19.70
2017-08-24T03:25:23.670Z,19.70
2017-08-24T03:27:50.160Z,19.60
2017-08-24T03:30:16.487Z,19.60
2017-08-24T03:32:42.880Z,19.60
2017-08-24T03:35:09.348Z,19.60
2017-08-24T03:37:35.809Z,19.60
2017-08-24T03:40:02.203Z,19.60
2017-08-24T03:42:28.623Z,19.60
2017-08-24T03:44:55.012Z,19.50
2017-08-24T03:47:21.374Z,19.60
2017-08-24T03:49:47.892Z,19.60
2017-08-24T03:52:14.304Z,19.60
2017-08-24T03:54:40.683Z,19.60
2017-08-24T03:57:07.068Z,19.60
2017-08-24T03:59:34.043Z,19.60
2017-08-24T04:02:00.776Z,19.50
2017-08-24T04:04:27.179Z,19.50
2017-08-24T04:06:53.616Z,19.60
2017-08-24T04:09:20.039Z,19.50
2017-08-24T04:11:46.416Z,19.50
2017-08-24T04:14:12.804Z,19.50
2017-08-24T04:16:46.251Z,19.50
2017-08-24T04:19:12.610Z,19.50
2017-08-24T04:21:39.077Z,19.50
2017-08-24T04:24:05.444Z,19.50
2017-08-24T04:26:31.870Z,19.50
2017-08-24T04:28:58.380Z,19.50
2017-08-24T04:31:24.772Z,19.50
2017-08-24T04:33:51.182Z,19.50
2017-08-24T04:36:17.597Z,19.50
2017-08-24T04:38:44.037Z,19.50
2017-08-24T04:41:10.418Z,19.50
2017-08-24T04:43:37.646Z,19.50
2017-08-24T04:46:04.096Z,19.50
2017-08-24T04:48:30.547Z,19.50
2017-08-24T04:50:56.951Z,19.50
2017-08-24T04:53:23.359Z,19.40
2017-08-24T04:55:49.727Z,19.40
2017-08-24T04:58:16.215Z,19.40
2017-08-24T05:00:42.693Z,19.40
2017-08-24T05:03:09.091Z,19.50
2017-08-24T05:05:35.523Z,19.50
2017-08-24T05:08:01.846Z,19.50
2017-08-24T05:10:28.216Z,19.50
2017-08-24T05:12:54.535Z,19.50
2017-08-24T05:15:20.857Z,19.50
2017-08-24T05:17:47.243Z,19.50
2017-08-24T05:20:13.580Z,19.50
2017-08-24T05:22:39.982Z,19.50
2017-08-24T05:25:06.409Z,19.50
2017-08-24T05:27:32.863Z,19.60
2017-08-24T05:29:59.197Z,19.60
2017-08-24T05:32:25.645Z,19.60
2017-08-24T05:34:51.993Z,19.60
2017-08-24T05:37:18.374Z,19.70
2017-08-24T05:39:44.820Z,19.70
2017-08-24T05:42:11.168Z,19.80
2017-08-24T05:44:37.596Z,19.90
2017-08-24T05:47:03.996Z,20.00
2017-08-24T05:49:31.412Z,20.10
2017-08-24T05:51:58.156Z,20.20
2017-08-24T05:54:25.005Z,20.30
2017-08-24T05:56:51.988Z,20.40
2017-08-24T05:59:18.737Z,20.50
2017-08-24T06:01:45.067Z,20.60
2017-08-24T06:04:11.522Z,20.70
2017-08-24T06:06:37.870Z,20.80
2017-08-24T06:09:04.296Z,20.90
2017-08-24T06:11:31.021Z,21.00
2017-08-24T06:13:57.460Z,21.00
2017-08-24T06:16:23.872Z,21.10
2017-08-24T06:18:50.237Z,21.10
2017-08-24T06:21:16.643Z,21.20
2017-08-24T06:23:43.057Z,21.30
2017-08-24T06:26:09.619Z,21.30
2017-08-24T06:28:36.017Z,21.30
2017-08-24T06:31:02.457Z,21.40
2017-08-24T06:33:28.979Z,21.40
2017-08-24T06:35:55.335Z,21.40
2017-08-24T06:38:21.666Z,21.50
2017-08-24T06:40:48.045Z,21.50
2017-08-24T06:43:14.408Z,21.50
2017-08-24T06:45:41.547Z,21.60
2017-08-24T06:51:11.330Z,21.60
2017-08-24T06:53:37.690Z,21.70
2017-08-24T06:56:03.999Z,21.70
2017-08-24T06:58:30.310Z,21.70
2017-08-24T07:00:56.673Z,21.70
2017-08-24T07:03:22.986Z,21.70
2017-08-24T07:05:49.438Z,21.80
2017-08-24T07:08:15.855Z,21.80
2017-08-24T07:10:42.180Z,21.80
2017-08-24T07:13:08.538Z,21.80
2017-08-24T07:15:34.851Z,21.90
2017-08-24T07:18:01.160Z,21.90
2017-08-24T07:20:27.535Z,21.90
2017-08-24T07:22:53.839Z,21.90
2017-08-24T07:25:20.154Z,22.00
2017-08-24T07:27:46.550Z,22.00
2017-08-24T07:30:12.925Z,22.00
2017-08-24T07:32:39.288Z,22.00
2017-08-24T07:35:05.607Z,22.00
2017-08-24T07:37:31.996Z,22.00
2017-08-24T07:39:58.338Z,22.00
2017-08-24T07:42:24.748Z,22.10
2017-08-24T07:44:51.065Z,22.10
2017-08-24T07:47:17.435Z,22.10
2017-08-24T07:49:43.770Z,22.10
2017-08-24T07:52:10.108Z,22.10
2017-08-24T07:54:36.436Z,22.20
2017-08-24T07:57:02.776Z,22.20
2017-08-24T07:59:29.096Z,22.20
2017-08-24T08:01:55.463Z,22.20
2017-08-24T08:04:22.620Z,22.30
2017-08-24T08:06:48.979Z,22.30
2017-08-24T08:09:15.377Z,22.30
2017-08-24T08:11:41.723Z,22.40
2017-08-24T08:14:08.099Z,22.40
2017-08-24T08:16:34.436Z,22.40
2017-08-24T08:19:00.827Z,22.50
2017-08-24T08:21:27.168Z,22.50
2017-08-24T08:23:53.575Z,22.60
2017-08-24T08:26:20.413Z,22.60
2017-08-24T08:28:47.518Z,22.70
2017-08-24T08:31:14.100Z,22.70
2017-08-24T08:33:40.551Z,22.80
2017-08-24T08:36:07.016Z,22.90
2017-08-24T08:38:33.430Z,22.90
2017-08-24T08:40:59.801Z,22.90
2017-08-24T08:43:26.212Z,23.00
2017-08-24T08:45:52.592Z,23.00
2017-08-24T08:48:18.946Z,23.10
2017-08-24T08:50:45.318Z,23.20
2017-08-24T08:53:11.659Z,23.30
2017-08-24T08:55:38.014Z,23.30
2017-08-24T08:58:04.378Z,23.30
2017-08-24T09:00:30.778Z,23.40
2017-08-24T09:02:57.156Z,23.40
2017-08-24T09:05:23.570Z,23.40
2017-08-24T09:07:49.891Z,23.40
2017-08-24T09:10:16.227Z,23.40
2017-08-24T09:12:42.544Z,23.50
2017-08-24T09:15:08.924Z,23.50
2017-08-24T09:17:35.314Z,23.60
2017-08-24T09:20:01.661Z,23.60
2017-08-24T09:22:27.996Z,23.70
2017-08-24T09:24:54.400Z,23.80
2017-08-24T09:27:20.778Z,23.80
2017-08-24T09:29:47.117Z,23.90
2017-08-24T09:32:13.472Z,23.90
2017-08-24T09:34:39.797Z,23.90
2017-08-24T09:37:06.168Z,23.90
2017-08-24T09:39:32.491Z,23.90
2017-08-24T09:41:58.827Z,23.90
2017-08-24T09:44:25.146Z,23.90
2017-08-24T09:46:51.482Z,23.90
2017-08-24T09:49:18.080Z,23.90
2017-08-24T09:51:44.476Z,23.90
2017-08-24T09:54:10.839Z,23.90
2017-08-24T09:56:37.231Z,23.90
2017-08-24T09:59:03.573Z,23.90
2017-08-24T10:01:29.979Z,23.90
2017-08-24T10:03:56.302Z,23.90
2017-08-24T10:06:22.660Z,23.90
2017-08-24T10:08:49.109Z,23.90
2017-08-24T10:11:15.493Z,24.00
2017-08-24T10:13:41.902Z,24.00
2017-08-24T10:16:08.310Z,24.10
2017-08-24T10:18:34.706Z,24.20
2017-08-24T10:21:01.377Z,24.30
2017-08-24T10:23:27.935Z,24.30
2017-08-24T10:25:54.292Z,24.30
2017-08-24T10:28:20.642Z,24.30
2017-08-24T10:30:47.076Z,24.30
2017-08-24T10:33:13.389Z,24.40
2017-08-24T10:35:39.713Z,24.50
2017-08-24T10:38:06.045Z,24.60
2017-08-24T10:40:32.360Z,24.70
2017-08-24T10:42:58.700Z,24.90
2017-08-24T10:45:25.023Z,25.00
2017-08-24T10:47:51.371Z,25.00
2017-08-24T10:50:17.725Z,25.00
2017-08-24T10:52:44.078Z,25.00
2017-08-24T10:55:10.431Z,25.10
2017-08-24T10:57:36.803Z,25.20
2017-08-24T11:00:03.132Z,25.30
2017-08-24T11:02:29.551Z,25.40
2017-08-24T11:04:55.913Z,25.40
2017-08-24T11:07:22.261Z,25.50
2017-08-24T11:09:48.583Z,25.50
2017-08-24T11:12:14.946Z,25.60
2017-08-24T11:14:41.288Z,25.60
2017-08-24T11:17:07.608Z,25.70
2017-08-24T11:19:33.947Z,25.70
2017-08-24T11:22:00.263Z,25.70
2017-08-24T11:24:26.612Z,25.70
2017-08-24T11:26:52.935Z,25.70
2017-08-24T11:29:19.424Z,25.80
2017-08-24T11:31:45.755Z,25.80
2017-08-24T11:34:12.187Z,25.80
2017-08-24T11:36:38.615Z,25.80
2017-08-24T11:39:04.986Z,25.80
2017-08-24T11:41:31.424Z,25.80
2017-08-24T11:43:58.116Z,25.90
2017-08-24T11:46:24.564Z,26.00
2017-08-24T11:48:51.022Z,26.00
2017-08-24T11:51:17.371Z,26.10
2017-08-24T11:53:43.724Z,26.20
2017-08-24T11:56:10.079Z,26.20
2017-08-24T11:58:36.475Z,26.20
2017-08-24T12:01:02.925Z,26.20
2017-08-24T12:03:29.334Z,26.20
2017-08-24T12:05:55.959Z,26.20
2017-08-24T12:08:22.286Z,26.20
2017-08-24T12:10:48.676Z,26.20
2017-08-24T12:13:15.024Z,26.20
2017-08-24T12:15:41.420Z,26.20
2017-08-24T12:18:07.763Z,26.20
2017-08-24T12:20:34.126Z,26.20
2017-08-24T12:23:00.580Z,26.20
2017-08-24T12:25:26.952Z,26.10
2017-08-24T12:27:53.296Z,26.10
2017-08-24T12:30:19.659Z,26.10
2017-08-24T12:32:45.980Z,26.10
2017-08-24T12:35:12.309Z,26.20
2017-08-24T12:37:38.649Z,26.20
2017-08-24T12:40:04.992Z,26.30
2017-08-24T12:42:31.426Z,26.30
2017-08-24T12:44:57.759Z,26.40
2017-08-24T12:47:24.099Z,26.40
2017-08-24T12:49:50.452Z,26.40
2017-08-24T12:52:16.839Z,26.40
2017-08-24T12:54:43.197Z,26.30
2017-08-24T12:57:09.580Z,26.30
2017-08-24T12:59:35.964Z,26.30
2017-08-24T13:02:02.335Z,26.30
2017-08-24T13:04:28.690Z,26.30
2017-08-24T13:06:55.029Z,26.20
2017-08-24T13:09:21.344Z,26.20
2017-08-24T13:11:47.692Z,26.20
2017-08-24T13:14:14.134Z,26.20
2017-08-24T13:16:40.523Z,26.20
2017-08-24T13:19:06.848Z,26.10
2017-08-24T13:21:33.424Z,26.10
2017-08-24T13:23:59.741Z,26.00
2017-08-24T13:26:26.066Z,26.00
2017-08-24T13:28:52.408Z,26.00
2017-08-24T13:31:18.730Z,26.00
2017-08-24T13:33:45.076Z,26.00
2017-08-24T13:36:11.412Z,26.10
2017-08-24T13:38:37.767Z,26.10
2017-08-24T13:41:04.181Z,26.10
2017-08-24T13:43:30.990Z,26.00
2017-08-24T13:45:57.783Z,26.00
2017-08-24T13:48:24.618Z,26.00
2017-08-24T13:50:51.253Z,26.00
2017-08-24T13:53:17.794Z,26.00
2017-08-24T13:55:44.549Z,26.00
2017-08-24T13:58:11.200Z,26.00
2017-08-24T14:00:37.611Z,26.00
2017-08-24T14:03:04.030Z,25.90
2017-08-24T14:05:30.378Z,25.90
2017-08-24T14:07:56.786Z,25.90
2017-08-24T14:10:23.104Z,25.90
2017-08-24T14:12:49.422Z,26.00
2017-08-24T14:15:15.765Z,26.00
2017-08-24T14:17:42.072Z,25.90
2017-08-24T14:20:08.420Z,25.90
2017-08-24T14:22:34.737Z,25.90
2017-08-24T14:25:01.087Z,25.90
2017-08-24T14:27:27.457Z,25.90
2017-08-24T14:29:54.104Z,25.90
2017-08-24T14:32:20.473Z,25.80
2017-08-24T14:34:46.839Z,25.80
2017-08-24T14:37:13.196Z,25.90
2017-08-24T14:39:39.643Z,25.80
2017-08-24T14:42:05.995Z,25.80
2017-08-24T14:44:32.361Z,25.80
2017-08-24T14:46:58.841Z,25.80
2017-08-24T14:49:25.259Z,25.80
2017-08-24T14:51:51.608Z,25.70
2017-08-24T14:54:17.925Z,25.70
2017-08-24T14:56:44.304Z,25.70
2017-08-24T14:59:10.634Z,25.70
2017-08-24T15:01:36.991Z,25.70
2017-08-24T15:04:03.326Z,25.60
2017-08-24T15:06:29.675Z,25.60
2017-08-24T15:08:56.146Z,25.60
2017-08-24T15:11:22.501Z,25.60
2017-08-24T15:13:48.824Z,25.50
2017-08-24T15:16:15.203Z,25.50
2017-08-24T15:18:41.549Z,25.50
2017-08-24T15:21:07.940Z,25.50
2017-08-24T15:23:34.299Z,25.50
2017-08-24T15:26:00.682Z,25.40
2017-08-24T15:28:27.099Z,25.40
2017-08-24T15:30:53.543Z,25.40
2017-08-24T15:33:21.014Z,25.40
2017-08-24T15:35:47.328Z,25.40
2017-08-24T15:38:13.877Z,25.40
2017-08-24T15:40:40.213Z,25.30
2017-08-24T15:43:06.661Z,25.30
2017-08-24T15:45:33.120Z,25.30
2017-08-24T15:47:59.543Z,25.30
2017-08-24T15:50:25.874Z,25.30
2017-08-24T15:52:52.233Z,25.30
2017-08-24T15:55:18.550Z,25.30
2017-08-24T15:57:44.883Z,25.30
2017-08-24T16:00:11.217Z,25.30
2017-08-24T16:02:37.567Z,25.30
2017-08-24T16:05:03.944Z,25.20
2017-08-24T16:07:30.283Z,25.20
2017-08-24T16:09:56.601Z,25.20
2017-08-24T16:12:22.973Z,25.20
2017-08-24T16:14:49.299Z,25.20
2017-08-24T16:17:15.704Z,25.20
2017-08-24T16:19:42.076Z,25.20
2017-08-24T16:22:08.529Z,25.20
2017-08-24T16:24:34.893Z,25.10
2017-08-24T16:27:01.222Z,25.10
2017-08-24T16:29:27.562Z,25.10
2017-08-24T16:31:53.924Z,25.10
2017-08-24T16:34:20.267Z,25.10
2017-08-24T16:36:46.726Z,25.00
2017-08-24T16:39:13.096Z,25.00
2017-08-24T16:41:39.581Z,25.00
2017-08-24T16:44:06.020Z,25.00
2017-08-24T16:46:32.423Z,25.00
2017-08-24T16:48:58.779Z,25.00
2017-08-24T16:51:25.102Z,25.00
2017-08-24T16:53:51.580Z,25.00
2017-08-24T16:56:17.914Z,24.90
2017-08-24T16:58:44.264Z,24.90
2017-08-24T17:01:10.581Z,24.90
2017-08-24T17:03:36.960Z,24.90
2017-08-24T17:08:36.511Z,24.90
2017-08-24T17:11:02.869Z,24.90
2017-08-24T17:13:29.192Z,24.80
2017-08-24T17:15:55.602Z,24.80
2017-08-24T17:18:21.956Z,24.80
2017-08-24T17:20:48.331Z,24.80
2017-08-24T17:23:14.745Z,24.70
2017-08-24T17:25:41.125Z,24.70
2017-08-24T17:28:07.440Z,24.70
2017-08-24T17:30:33.794Z,24.70
2017-08-24T17:33:00.133Z,24.70
2017-08-24T17:35:26.548Z,24.60
2017-08-24T17:37:52.887Z,24.60
2017-08-24T17:40:19.254Z,24.60
2017-08-24T17:42:45.636Z,24.60
2017-08-24T17:45:12.097Z,24.50
2017-08-24T17:47:38.468Z,24.50
2017-08-24T17:50:04.793Z,24.50
2017-08-24T17:52:31.145Z,24.50
2017-08-24T17:54:57.556Z,24.40
2017-08-24T17:57:23.928Z,24.40
2017-08-24T17:59:50.358Z,24.40
2017-08-24T18:02:16.800Z,24.40
2017-08-24T18:04:43.193Z,24.40
2017-08-24T18:07:09.639Z,24.30
2017-08-24T18:09:36.047Z,24.30
2017-08-24T18:12:02.430Z,24.30
2017-08-24T18:14:28.749Z,24.20
2017-08-24T18:16:55.093Z,24.20
2017-08-24T18:19:21.446Z,24.20
2017-08-24T18:21:47.881Z,24.20
2017-08-24T18:24:14.538Z,24.10
2017-08-24T18:26:41.566Z,24.10
2017-08-24T18:29:07.909Z,24.10
2017-08-24T18:31:34.283Z,24.10
2017-08-24T18:34:00.651Z,24.00
2017-08-24T18:36:27.071Z,24.00
2017-08-24T18:38:53.438Z,24.00
2017-08-24T18:41:19.880Z,23.90
2017-08-24T18:43:46.226Z,23.90
2017-08-24T18:46:12.648Z,23.80
2017-08-24T18:48:38.990Z,23.80
2017-08-24T18:51:05.480Z,23.80
2017-08-24T18:53:31.895Z,23.70
2017-08-24T18:55:58.361Z,23.70
2017-08-24T18:58:24.819Z,23.60
2017-08-24T19:00:51.152Z,23.60
2017-08-24T19:03:17.531Z,23.50
2017-08-24T19:05:43.841Z,23.50
2017-08-24T19:08:10.280Z,23.50
2017-08-24T19:10:36.709Z,23.40
2017-08-24T19:13:03.156Z,23.40
2017-08-24T19:15:29.564Z,23.30
2017-08-24T19:17:56.252Z,23.20
2017-08-24T19:20:22.663Z,23.20
2017-08-24T19:22:49.223Z,23.20
2017-08-24T19:25:15.868Z,23.20
2017-08-24T19:27:42.243Z,23.10
2017-08-24T19:30:08.623Z,23.10
2017-08-24T19:32:34.942Z,23.10
2017-08-24T19:35:01.382Z,23.00
2017-08-24T19:37:27.726Z,23.00
2017-08-24T19:39:54.072Z,23.00
2017-08-24T19:42:20.417Z,22.90
2017-08-24T19:44:46.772Z,22.90
2017-08-24T19:47:13.175Z,22.90
2017-08-24T19:49:39.528Z,22.80
2017-08-24T19:52:05.861Z,22.80
2017-08-24T19:54:32.388Z,22.70
2017-08-24T19:56:58.707Z,22.70
2017-08-24T19:59:25.027Z,22.70
2017-08-24T20:01:51.427Z,22.60
2017-08-24T20:04:17.798Z,22.60
2017-08-24T20:06:44.618Z,22.50
2017-08-24T20:09:10.939Z,22.50
2017-08-24T20:11:37.437Z,22.40
2017-08-24T20:14:03.912Z,22.40
2017-08-24T20:16:30.275Z,22.30
2017-08-24T20:18:56.799Z,22.30
2017-08-24T20:21:23.165Z,22.20
2017-08-24T20:23:49.550Z,22.20
2017-08-24T20:26:15.969Z,22.10
2017-08-24T20:28:42.619Z,22.10
2017-08-24T20:31:08.987Z,22.00
2017-08-24T20:33:35.481Z,22.00
2017-08-24T20:36:01.957Z,22.00
2017-08-24T20:38:28.306Z,21.90
2017-08-24T20:40:54.781Z,21.90
2017-08-24T20:43:21.212Z,21.80
2017-08-24T20:45:47.523Z,21.80
2017-08-24T20:48:14.027Z,21.80
2017-08-24T20:50:40.400Z,21.80
2017-08-24T20:53:06.754Z,21.80
2017-08-24T20:55:33.107Z,21.80
2017-08-24T20:57:59.439Z,21.70
2017-08-24T21:00:25.827Z,21.70
2017-08-24T21:02:52.202Z,21.70
2017-08-24T21:05:18.632Z,21.70
2017-08-24T21:07:45.002Z,21.60
2017-08-24T21:10:11.371Z,21.50
2017-08-24T21:12:37.693Z,21.50
2017-08-24T21:15:04.016Z,21.50
2017-08-24T21:17:30.424Z,21.40
2017-08-24T21:19:56.771Z,21.40
2017-08-24T21:22:23.104Z,21.30
2017-08-24T21:24:49.473Z,21.30
2017-08-24T21:27:15.867Z,21.30
2017-08-24T21:29:42.236Z,21.30
2017-08-24T21:32:08.717Z,21.20
2017-08-24T21:34:35.033Z,21.20
2017-08-24T21:37:01.403Z,21.20
2017-08-24T21:39:27.728Z,21.20
2017-08-24T21:41:54.095Z,21.20
2017-08-24T21:44:20.639Z,21.10
2017-08-24T21:46:46.974Z,21.10
2017-08-24T21:49:13.365Z,21.10
2017-08-24T21:51:39.683Z,21.10
2017-08-24T21:54:06.055Z,21.00
2017-08-24T21:56:32.376Z,21.00
2017-08-24T21:58:58.701Z,21.00
2017-08-24T22:01:25.052Z,20.90
2017-08-24T22:03:51.368Z,20.90
2017-08-24T22:06:17.768Z,20.90
2017-08-24T22:08:44.173Z,20.90
2017-08-24T22:11:10.534Z,20.80
2017-08-24T22:13:36.904Z,20.80
2017-08-24T22:16:03.299Z,20.80
2017-08-24T22:18:29.682Z,20.70
2017-08-24T22:20:56.141Z,20.70
2017-08-24T22:23:22.460Z,20.70
2017-08-24T22:25:48.816Z,20.70
2017-08-24T22:28:15.200Z,20.70
2017-08-24T22:30:41.583Z,20.60
2017-08-24T22:33:07.907Z,20.60
2017-08-24T22:35:34.291Z,20.60
2017-08-24T22:38:00.665Z,20.60
2017-08-24T22:40:26.975Z,20.50
2017-08-24T22:42:53.586Z,20.50
2017-08-24T22:45:19.939Z,20.50
2017-08-24T22:47:46.255Z,20.50
2017-08-24T22:50:12.616Z,20.50
2017-08-24T22:52:38.930Z,20.40
2017-08-24T22:55:11.284Z,20.40
2017-08-24T22:57:43.832Z,20.40
2017-08-24T23:00:16.171Z,20.40
2017-08-24T23:02:48.550Z,20.30
2017-08-24T23:05:15.603Z,20.20
2017-08-24T23:07:41.999Z,20.20
2017-08-24T23:10:08.366Z,20.10
2017-08-24T23:12:34.683Z,20.10
2017-08-24T23:15:01.056Z,20.10
2017-08-24T23:17:27.432Z,20.10
2017-08-24T23:19:53.825Z,20.10
2017-08-24T23:22:20.211Z,20.10
2017-08-24T23:24:46.574Z,20.00
2017-08-24T23:27:12.986Z,20.00
2017-08-24T23:29:39.389Z,20.00
2017-08-24T23:32:05.883Z,20.00
2017-08-24T23:34:32.312Z,20.00
2017-08-24T23:36:58.753Z,20.00
2017-08-24T23:39:25.105Z,20.00
2017-08-24T23:41:51.476Z,20.00
2017-08-24T23:44:17.836Z,20.00
2017-08-24T23:46:44.156Z,20.00
2017-08-24T23:49:10.504Z,20.00
2017-08-24T23:51:36.863Z,20.00
2017-08-24T23:54:03.269Z,20.00
2017-08-24T23:56:29.672Z,20.00
2017-08-24T23:58:56.104Z,20.00
